sensor_id;sensor_type;location;lat;lon;timestamp;temperature;humidity
27978;DHT22;15314;49.248;6.968;2022-11-24T00:00:03;9.10;99.90
27978;DHT22;15314;49.248;6.968;2022-11-24T00:01:08;8.90;99.90
27978;DHT22;15314;49.248;6.968;2022-11-24T00:02:09;8.90;99.90
27978;DHT22;15314;49.248;6.968;2022-11-24T00:03:10;8.90;99.90
27978;DHT22;15314;49.248;6.968;2022-11-24T00:04:10;8.90;99.90
27978;DHT22;15314;49.248;6.968;2022-11-24T00:05:11;9.00;99.90
27978;DHT22;15314;49.248;6.968;2022-11-24T00:06:14;8.90;99.90
27978;DHT22;15314;49.248;6.968;2022-11-24T00:07:14;8.70;99.90
27978;DHT22;15314;49.248;6.968;2022-11-24T00:08:15;8.70;99.90
27978;DHT22;15314;49.248;6.968;2022-11-24T00:09:16;8.60;99.90
27978;DHT22;15314;49.248;6.968;2022-11-24T00:10:16;8.60;99.90
27978;DHT22;15314;49.248;6.968;2022-11-24T00:11:19;8.60;99.90
27978;DHT22;15314;49.248;6.968;2022-11-24T00:12:20;8.50;99.90
27978;DHT22;15314;49.248;6.968;2022-11-24T00:13:21;8.50;99.90
27978;DHT22;15314;49.248;6.968;2022-11-24T00:14:21;8.50;99.90
27978;DHT22;15314;49.248;6.968;2022-11-24T00:15:22;8.50;99.90
27978;DHT22;15314;49.248;6.968;2022-11-24T00:16:34;8.50;99.90
27978;DHT22;15314;49.248;6.968;2022-11-24T00:17:35;8.50;99.90
27978;DHT22;15314;49.248;6.968;2022-11-24T00:18:35;8.50;99.90
27978;DHT22;15314;49.248;6.968;2022-11-24T00:19:36;8.50;99.90
27978;DHT22;15314;49.248;6.968;2022-11-24T00:20:37;8.50;99.90
27978;DHT22;15314;49.248;6.968;2022-11-24T00:21:38;8.50;99.90
27978;DHT22;15314;49.248;6.968;2022-11-24T00:22:38;8.50;99.90
27978;DHT22;15314;49.248;6.968;2022-11-24T00:23:39;8.50;99.90
27978;DHT22;15314;49.248;6.968;2022-11-24T00:24:39;8.40;99.90
27978;DHT22;15314;49.248;6.968;2022-11-24T00:25:40;8.40;99.90
27978;DHT22;15314;49.248;6.968;2022-11-24T00:26:41;8.30;99.90
27978;DHT22;15314;49.248;6.968;2022-11-24T00:27:42;8.30;99.90
27978;DHT22;15314;49.248;6.968;2022-11-24T00:28:43;8.30;99.90
27978;DHT22;15314;49.248;6.968;2022-11-24T00:29:44;8.30;99.90
27978;DHT22;15314;49.248;6.968;2022-11-24T00:30:45;8.40;99.90
27978;DHT22;15314;49.248;6.968;2022-11-24T00:31:45;8.40;99.90
27978;DHT22;15314;49.248;6.968;2022-11-24T00:32:46;8.40;99.90
27978;DHT22;15314;49.248;6.968;2022-11-24T00:33:48;8.50;99.90
27978;DHT22;15314;49.248;6.968;2022-11-24T00:34:49;8.50;99.90
27978;DHT22;15314;49.248;6.968;2022-11-24T00:35:54;8.50;99.90
27978;DHT22;15314;49.248;6.968;2022-11-24T00:36:55;8.60;99.90
27978;DHT22;15314;49.248;6.968;2022-11-24T00:37:55;8.60;99.90
27978;DHT22;15314;49.248;6.968;2022-11-24T00:38:59;8.70;99.90
27978;DHT22;15314;49.248;6.968;2022-11-24T00:40:00;8.70;99.90
27978;DHT22;15314;49.248;6.968;2022-11-24T00:41:00;8.80;99.90
27978;DHT22;15314;49.248;6.968;2022-11-24T00:42:01;8.80;99.90
27978;DHT22;15314;49.248;6.968;2022-11-24T00:43:02;8.70;99.90
27978;DHT22;15314;49.248;6.968;2022-11-24T00:44:03;8.70;99.90
27978;DHT22;15314;49.248;6.968;2022-11-24T00:45:04;8.70;99.90
27978;DHT22;15314;49.248;6.968;2022-11-24T00:46:05;8.60;99.90
27978;DHT22;15314;49.248;6.968;2022-11-24T00:47:06;8.60;99.90
27978;DHT22;15314;49.248;6.968;2022-11-24T00:48:06;8.60;99.90
27978;DHT22;15314;49.248;6.968;2022-11-24T00:49:07;8.60;99.90
27978;DHT22;15314;49.248;6.968;2022-11-24T00:50:08;8.60;99.90
27978;DHT22;15314;49.248;6.968;2022-11-24T00:51:12;8.60;99.90
27978;DHT22;15314;49.248;6.968;2022-11-24T00:52:14;8.50;99.90
27978;DHT22;15314;49.248;6.968;2022-11-24T00:53:14;8.50;99.90
27978;DHT22;15314;49.248;6.968;2022-11-24T00:54:15;8.50;99.90
27978;DHT22;15314;49.248;6.968;2022-11-24T00:55:15;8.40;99.90
27978;DHT22;15314;49.248;6.968;2022-11-24T00:56:16;8.40;99.90
27978;DHT22;15314;49.248;6.968;2022-11-24T00:57:17;8.40;99.90
27978;DHT22;15314;49.248;6.968;2022-11-24T00:58:18;8.40;99.90
27978;DHT22;15314;49.248;6.968;2022-11-24T00:59:19;8.30;99.90
27978;DHT22;15314;49.248;6.968;2022-11-24T01:00:19;8.30;99.90
27978;DHT22;15314;49.248;6.968;2022-11-24T01:01:23;8.30;99.90
27978;DHT22;15314;49.248;6.968;2022-11-24T01:02:24;8.40;99.90
27978;DHT22;15314;49.248;6.968;2022-11-24T01:03:24;8.40;99.90
27978;DHT22;15314;49.248;6.968;2022-11-24T01:04:25;8.50;99.90
27978;DHT22;15314;49.248;6.968;2022-11-24T01:05:26;8.50;99.90
27978;DHT22;15314;49.248;6.968;2022-11-24T01:06:27;8.50;99.90
27978;DHT22;15314;49.248;6.968;2022-11-24T01:07:29;8.50;99.90
27978;DHT22;15314;49.248;6.968;2022-11-24T01:08:30;8.50;99.90
27978;DHT22;15314;49.248;6.968;2022-11-24T01:09:31;8.50;99.90
27978;DHT22;15314;49.248;6.968;2022-11-24T01:10:31;8.50;99.90
27978;DHT22;15314;49.248;6.968;2022-11-24T01:11:34;8.40;99.90
27978;DHT22;15314;49.248;6.968;2022-11-24T01:12:53;8.40;99.90
27978;DHT22;15314;49.248;6.968;2022-11-24T01:13:57;8.40;99.90
27978;DHT22;15314;49.248;6.968;2022-11-24T01:14:58;8.40;99.90
27978;DHT22;15314;49.248;6.968;2022-11-24T01:15:59;8.30;99.90
27978;DHT22;15314;49.248;6.968;2022-11-24T01:16:59;8.30;99.90
27978;DHT22;15314;49.248;6.968;2022-11-24T01:18:00;8.30;99.90
27978;DHT22;15314;49.248;6.968;2022-11-24T01:19:01;8.30;99.90
27978;DHT22;15314;49.248;6.968;2022-11-24T01:20:03;8.30;99.90
27978;DHT22;15314;49.248;6.968;2022-11-24T01:21:04;8.30;99.90
27978;DHT22;15314;49.248;6.968;2022-11-24T01:22:05;8.30;99.90
27978;DHT22;15314;49.248;6.968;2022-11-24T01:23:05;8.30;99.90
27978;DHT22;15314;49.248;6.968;2022-11-24T01:24:06;8.30;99.90
27978;DHT22;15314;49.248;6.968;2022-11-24T01:25:09;8.30;99.90
27978;DHT22;15314;49.248;6.968;2022-11-24T01:26:12;8.30;99.90
27978;DHT22;15314;49.248;6.968;2022-11-24T01:27:13;8.30;99.90
27978;DHT22;15314;49.248;6.968;2022-11-24T01:28:14;8.20;99.90
27978;DHT22;15314;49.248;6.968;2022-11-24T01:29:15;8.10;99.90
27978;DHT22;15314;49.248;6.968;2022-11-24T01:30:16;8.00;99.90
27978;DHT22;15314;49.248;6.968;2022-11-24T01:31:19;8.00;99.90
27978;DHT22;15314;49.248;6.968;2022-11-24T01:32:20;8.00;99.90
27978;DHT22;15314;49.248;6.968;2022-11-24T01:33:21;7.90;99.90
27978;DHT22;15314;49.248;6.968;2022-11-24T01:34:22;7.90;99.90
27978;DHT22;15314;49.248;6.968;2022-11-24T01:35:23;7.90;99.90
27978;DHT22;15314;49.248;6.968;2022-11-24T01:36:23;7.90;99.90
27978;DHT22;15314;49.248;6.968;2022-11-24T01:37:25;8.00;99.90
27978;DHT22;15314;49.248;6.968;2022-11-24T01:38:26;8.00;99.90
27978;DHT22;15314;49.248;6.968;2022-11-24T01:39:27;7.90;99.90
27978;DHT22;15314;49.248;6.968;2022-11-24T01:40:27;7.90;99.90
27978;DHT22;15314;49.248;6.968;2022-11-24T01:41:28;7.90;99.90
27978;DHT22;15314;49.248;6.968;2022-11-24T07:46:06;9.50;99.90
27978;DHT22;15314;49.248;6.968;2022-11-24T07:47:10;9.50;99.90
27978;DHT22;15314;49.248;6.968;2022-11-24T07:48:11;9.50;99.90
27978;DHT22;15314;49.248;6.968;2022-11-24T07:49:11;9.60;99.90
27978;DHT22;15314;49.248;6.968;2022-11-24T07:50:12;9.60;99.90
27978;DHT22;15314;49.248;6.968;2022-11-24T07:51:13;9.70;99.90
27978;DHT22;15314;49.248;6.968;2022-11-24T07:52:14;9.70;99.90
27978;DHT22;15314;49.248;6.968;2022-11-24T07:53:15;9.80;99.90
27978;DHT22;15314;49.248;6.968;2022-11-24T07:54:16;9.90;99.90
27978;DHT22;15314;49.248;6.968;2022-11-24T07:55:17;9.90;99.90
27978;DHT22;15314;49.248;6.968;2022-11-24T07:56:18;9.90;99.90
27978;DHT22;15314;49.248;6.968;2022-11-24T07:57:18;9.90;99.90
27978;DHT22;15314;49.248;6.968;2022-11-24T07:58:19;9.90;99.90
27978;DHT22;15314;49.248;6.968;2022-11-24T07:59:20;10.00;99.90
27978;DHT22;15314;49.248;6.968;2022-11-24T08:00:20;10.00;99.90
27978;DHT22;15314;49.248;6.968;2022-11-24T08:01:21;10.10;99.90
27978;DHT22;15314;49.248;6.968;2022-11-24T08:02:22;10.00;99.90
27978;DHT22;15314;49.248;6.968;2022-11-24T08:03:24;9.90;99.90
27978;DHT22;15314;49.248;6.968;2022-11-24T08:04:24;9.90;99.90
27978;DHT22;15314;49.248;6.968;2022-11-24T08:05:25;9.80;99.90
27978;DHT22;15314;49.248;6.968;2022-11-24T08:06:27;9.80;99.90
27978;DHT22;15314;49.248;6.968;2022-11-24T08:07:28;9.90;99.90
27978;DHT22;15314;49.248;6.968;2022-11-24T08:08:29;9.90;99.90
27978;DHT22;15314;49.248;6.968;2022-11-24T08:09:33;9.80;99.90
27978;DHT22;15314;49.248;6.968;2022-11-24T08:10:34;9.80;99.90
27978;DHT22;15314;49.248;6.968;2022-11-24T08:11:34;9.90;99.90
27978;DHT22;15314;49.248;6.968;2022-11-24T08:12:36;9.90;99.90
27978;DHT22;15314;49.248;6.968;2022-11-24T08:13:36;10.00;99.90
27978;DHT22;15314;49.248;6.968;2022-11-24T08:14:37;10.10;99.90
27978;DHT22;15314;49.248;6.968;2022-11-24T08:15:38;10.20;99.90
27978;DHT22;15314;49.248;6.968;2022-11-24T08:16:39;10.20;99.90
27978;DHT22;15314;49.248;6.968;2022-11-24T08:17:39;10.20;99.90
27978;DHT22;15314;49.248;6.968;2022-11-24T08:18:41;10.20;99.90
27978;DHT22;15314;49.248;6.968;2022-11-24T08:19:41;10.30;99.90
27978;DHT22;15314;49.248;6.968;2022-11-24T08:20:42;10.20;99.90
27978;DHT22;15314;49.248;6.968;2022-11-24T08:21:43;10.30;99.90
27978;DHT22;15314;49.248;6.968;2022-11-24T08:22:44;10.20;99.90
27978;DHT22;15314;49.248;6.968;2022-11-24T08:23:45;10.30;99.90
27978;DHT22;15314;49.248;6.968;2022-11-24T08:24:46;10.30;99.90
27978;DHT22;15314;49.248;6.968;2022-11-24T08:25:48;10.30;99.90
27978;DHT22;15314;49.248;6.968;2022-11-24T08:26:48;10.30;99.90
27978;DHT22;15314;49.248;6.968;2022-11-24T08:27:49;10.40;99.90
27978;DHT22;15314;49.248;6.968;2022-11-24T08:28:53;10.30;99.90
27978;DHT22;15314;49.248;6.968;2022-11-24T08:29:54;10.30;99.90
27978;DHT22;15314;49.248;6.968;2022-11-24T08:31:06;10.30;99.90
27978;DHT22;15314;49.248;6.968;2022-11-24T08:32:07;10.30;99.90
27978;DHT22;15314;49.248;6.968;2022-11-24T08:33:08;10.30;99.90
27978;DHT22;15314;49.248;6.968;2022-11-24T08:34:09;10.30;99.90
27978;DHT22;15314;49.248;6.968;2022-11-24T08:35:10;10.30;99.90
27978;DHT22;15314;49.248;6.968;2022-11-24T08:36:15;10.30;99.90
27978;DHT22;15314;49.248;6.968;2022-11-24T08:37:16;10.40;99.90
27978;DHT22;15314;49.248;6.968;2022-11-24T08:38:16;10.30;99.90
27978;DHT22;15314;49.248;6.968;2022-11-24T08:39:17;10.30;99.90
27978;DHT22;15314;49.248;6.968;2022-11-24T08:40:18;10.40;99.90
27978;DHT22;15314;49.248;6.968;2022-11-24T08:41:18;10.40;99.90
27978;DHT22;15314;49.248;6.968;2022-11-24T08:42:19;10.30;99.90
27978;DHT22;15314;49.248;6.968;2022-11-24T08:43:20;10.40;99.90
27978;DHT22;15314;49.248;6.968;2022-11-24T08:44:22;10.40;99.90
27978;DHT22;15314;49.248;6.968;2022-11-24T08:45:22;10.40;99.90
27978;DHT22;15314;49.248;6.968;2022-11-24T08:46:23;10.70;99.90
27978;DHT22;15314;49.248;6.968;2022-11-24T08:47:24;10.90;99.90
27978;DHT22;15314;49.248;6.968;2022-11-24T08:48:25;11.00;99.90
27978;DHT22;15314;49.248;6.968;2022-11-24T08:49:25;10.90;99.90
27978;DHT22;15314;49.248;6.968;2022-11-24T08:50:26;10.90;99.90
27978;DHT22;15314;49.248;6.968;2022-11-24T08:51:28;10.80;99.90
27978;DHT22;15314;49.248;6.968;2022-11-24T08:52:28;10.90;99.90
27978;DHT22;15314;49.248;6.968;2022-11-24T08:53:30;10.80;99.90
27978;DHT22;15314;49.248;6.968;2022-11-24T08:54:31;10.60;99.90
27978;DHT22;15314;49.248;6.968;2022-11-24T08:55:32;10.50;99.90
27978;DHT22;15314;49.248;6.968;2022-11-24T08:56:33;10.40;99.90
27978;DHT22;15314;49.248;6.968;2022-11-24T08:57:33;10.20;99.90
27978;DHT22;15314;49.248;6.968;2022-11-24T08:58:35;10.20;99.90
27978;DHT22;15314;49.248;6.968;2022-11-24T08:59:36;10.30;99.90
27978;DHT22;15314;49.248;6.968;2022-11-24T09:00:37;10.50;99.90
27978;DHT22;15314;49.248;6.968;2022-11-24T09:01:38;10.50;99.90
27978;DHT22;15314;49.248;6.968;2022-11-24T09:02:39;10.40;99.90
27978;DHT22;15314;49.248;6.968;2022-11-24T09:03:45;10.40;99.90
27978;DHT22;15314;49.248;6.968;2022-11-24T09:04:46;10.40;99.90
27978;DHT22;15314;49.248;6.968;2022-11-24T09:05:48;10.30;99.90
27978;DHT22;15314;49.248;6.968;2022-11-24T09:06:49;10.40;99.90
27978;DHT22;15314;49.248;6.968;2022-11-24T09:07:50;10.30;99.90
27978;DHT22;15314;49.248;6.968;2022-11-24T09:08:52;10.30;99.90
27978;DHT22;15314;49.248;6.968;2022-11-24T09:09:54;10.30;99.90
27978;DHT22;15314;49.248;6.968;2022-11-24T09:10:59;10.20;99.90
27978;DHT22;15314;49.248;6.968;2022-11-24T09:12:00;10.00;99.90
27978;DHT22;15314;49.248;6.968;2022-11-24T09:13:01;10.10;99.90
27978;DHT22;15314;49.248;6.968;2022-11-24T09:14:02;10.10;99.90
27978;DHT22;15314;49.248;6.968;2022-11-24T09:15:03;10.10;99.90
27978;DHT22;15314;49.248;6.968;2022-11-24T09:16:08;10.20;99.90
27978;DHT22;15314;49.248;6.968;2022-11-24T09:17:10;10.30;99.90
27978;DHT22;15314;49.248;6.968;2022-11-24T09:18:11;10.30;99.90
27978;DHT22;15314;49.248;6.968;2022-11-24T09:19:13;10.30;99.90
27978;DHT22;15314;49.248;6.968;2022-11-24T09:20:14;10.40;99.90
27978;DHT22;15314;49.248;6.968;2022-11-24T09:21:17;10.30;99.90
27978;DHT22;15314;49.248;6.968;2022-11-24T09:22:18;10.20;99.90
27978;DHT22;15314;49.248;6.968;2022-11-24T09:23:19;10.20;99.90
27978;DHT22;15314;49.248;6.968;2022-11-24T09:24:19;10.30;99.90
27978;DHT22;15314;49.248;6.968;2022-11-24T09:25:20;10.30;99.90
27978;DHT22;15314;49.248;6.968;2022-11-24T09:26:25;10.30;99.90
27978;DHT22;15314;49.248;6.968;2022-11-24T09:27:26;10.30;99.90
27978;DHT22;15314;49.248;6.968;2022-11-24T09:28:27;10.30;99.90
27978;DHT22;15314;49.248;6.968;2022-11-24T09:29:28;10.40;99.90
27978;DHT22;15314;49.248;6.968;2022-11-24T09:30:29;10.40;99.90
27978;DHT22;15314;49.248;6.968;2022-11-24T09:31:31;10.40;99.90
27978;DHT22;15314;49.248;6.968;2022-11-24T09:32:35;10.50;99.90
27978;DHT22;15314;49.248;6.968;2022-11-24T09:33:38;10.60;99.90
27978;DHT22;15314;49.248;6.968;2022-11-24T09:34:38;10.60;99.90
27978;DHT22;15314;49.248;6.968;2022-11-24T09:35:39;10.60;99.90
27978;DHT22;15314;49.248;6.968;2022-11-24T09:36:40;10.50;99.90
27978;DHT22;15314;49.248;6.968;2022-11-24T09:37:41;10.50;99.90
27978;DHT22;15314;49.248;6.968;2022-11-24T09:38:44;10.50;99.90
27978;DHT22;15314;49.248;6.968;2022-11-24T09:39:45;10.50;99.90
27978;DHT22;15314;49.248;6.968;2022-11-24T09:40:45;10.50;99.90
27978;DHT22;15314;49.248;6.968;2022-11-24T09:42:28;10.50;99.90
27978;DHT22;15314;49.248;6.968;2022-11-24T09:43:43;10.50;99.90
27978;DHT22;15314;49.248;6.968;2022-11-24T09:46:05;10.60;99.90
27978;DHT22;15314;49.248;6.968;2022-11-24T09:48:49;10.60;99.90
27978;DHT22;15314;49.248;6.968;2022-11-24T09:51:03;10.50;99.90
27978;DHT22;15314;49.248;6.968;2022-11-24T09:52:11;10.50;99.90
27978;DHT22;15314;49.248;6.968;2022-11-24T09:54:26;10.50;99.90
27978;DHT22;15314;49.248;6.968;2022-11-24T09:55:36;10.50;99.90
27978;DHT22;15314;49.248;6.968;2022-11-24T09:56:39;10.50;99.90
27978;DHT22;15314;49.248;6.968;2022-11-24T09:57:42;10.50;99.90
27978;DHT22;15314;49.248;6.968;2022-11-24T09:59:48;10.50;99.90
27978;DHT22;15314;49.248;6.968;2022-11-24T10:00:51;10.60;99.90
27978;DHT22;15314;49.248;6.968;2022-11-24T10:01:53;10.60;99.90
27978;DHT22;15314;49.248;6.968;2022-11-24T10:02:56;10.60;99.90
27978;DHT22;15314;49.248;6.968;2022-11-24T10:03:57;10.60;99.90
27978;DHT22;15314;49.248;6.968;2022-11-24T10:04:58;10.60;99.90
27978;DHT22;15314;49.248;6.968;2022-11-24T10:06:03;10.60;99.90
27978;DHT22;15314;49.248;6.968;2022-11-24T10:07:21;10.70;99.90
27978;DHT22;15314;49.248;6.968;2022-11-24T10:08:47;10.70;99.90
27978;DHT22;15314;49.248;6.968;2022-11-24T10:10:10;10.80;99.90
27978;DHT22;15314;49.248;6.968;2022-11-24T10:11:15;10.80;99.90
27978;DHT22;15314;49.248;6.968;2022-11-24T10:13:59;10.90;99.90
27978;DHT22;15314;49.248;6.968;2022-11-24T10:15:24;11.00;99.90
27978;DHT22;15314;49.248;6.968;2022-11-24T10:16:56;11.00;99.90
27978;DHT22;15314;49.248;6.968;2022-11-24T10:20:50;11.30;99.90
27978;DHT22;15314;49.248;6.968;2022-11-24T10:22:15;11.30;99.90
27978;DHT22;15314;49.248;6.968;2022-11-24T10:23:29;11.40;99.90
27978;DHT22;15314;49.248;6.968;2022-11-24T10:25:58;11.60;99.90
27978;DHT22;15314;49.248;6.968;2022-11-24T10:27:19;11.50;99.90
27978;DHT22;15314;49.248;6.968;2022-11-24T10:28:28;11.60;99.90
27978;DHT22;15314;49.248;6.968;2022-11-24T10:29:38;11.60;99.90
27978;DHT22;15314;49.248;6.968;2022-11-24T10:30:39;11.70;99.90
27978;DHT22;15314;49.248;6.968;2022-11-24T10:31:42;11.80;99.90
27978;DHT22;15314;49.248;6.968;2022-11-24T10:32:48;11.80;99.90
27978;DHT22;15314;49.248;6.968;2022-11-24T10:33:49;11.70;99.90
27978;DHT22;15314;49.248;6.968;2022-11-24T10:34:50;11.60;99.90
27978;DHT22;15314;49.248;6.968;2022-11-24T10:36:07;11.50;99.90
27978;DHT22;15314;49.248;6.968;2022-11-24T10:38:34;11.60;99.90
27978;DHT22;15314;49.248;6.968;2022-11-24T10:39:47;11.70;99.90
27978;DHT22;15314;49.248;6.968;2022-11-24T10:40:53;11.60;99.90
27978;DHT22;15314;49.248;6.968;2022-11-24T10:42:13;11.60;99.90
27978;DHT22;15314;49.248;6.968;2022-11-24T10:43:15;11.50;99.90
27978;DHT22;15314;49.248;6.968;2022-11-24T10:44:15;11.50;99.90
27978;DHT22;15314;49.248;6.968;2022-11-24T10:45:18;11.50;99.90
27978;DHT22;15314;49.248;6.968;2022-11-24T10:46:22;11.60;99.90
27978;DHT22;15314;49.248;6.968;2022-11-24T10:47:23;11.60;99.90
27978;DHT22;15314;49.248;6.968;2022-11-24T10:48:25;11.60;99.90
27978;DHT22;15314;49.248;6.968;2022-11-24T10:49:31;11.70;99.90
27978;DHT22;15314;49.248;6.968;2022-11-24T10:50:35;11.60;99.90
27978;DHT22;15314;49.248;6.968;2022-11-24T10:54:21;11.60;99.90
27978;DHT22;15314;49.248;6.968;2022-11-24T10:55:22;11.50;99.90
27978;DHT22;15314;49.248;6.968;2022-11-24T10:56:23;11.50;99.90
27978;DHT22;15314;49.248;6.968;2022-11-24T10:57:38;11.60;99.90
27978;DHT22;15314;49.248;6.968;2022-11-24T10:58:39;11.50;99.90
27978;DHT22;15314;49.248;6.968;2022-11-24T10:59:40;11.50;99.90
27978;DHT22;15314;49.248;6.968;2022-11-24T11:00:41;11.50;99.80
27978;DHT22;15314;49.248;6.968;2022-11-24T11:01:41;11.50;99.90
27978;DHT22;15314;49.248;6.968;2022-11-24T11:02:42;11.50;99.90
27978;DHT22;15314;49.248;6.968;2022-11-24T11:03:54;11.50;99.90
27978;DHT22;15314;49.248;6.968;2022-11-24T11:04:57;11.50;99.90
27978;DHT22;15314;49.248;6.968;2022-11-24T11:06:12;11.60;99.90
27978;DHT22;15314;49.248;6.968;2022-11-24T11:07:17;11.60;99.30
27978;DHT22;15314;49.248;6.968;2022-11-24T11:08:25;11.60;99.90
27978;DHT22;15314;49.248;6.968;2022-11-24T11:09:26;11.60;99.90
27978;DHT22;15314;49.248;6.968;2022-11-24T11:10:27;11.80;99.90
27978;DHT22;15314;49.248;6.968;2022-11-24T11:11:28;12.70;99.90
27978;DHT22;15314;49.248;6.968;2022-11-24T11:12:29;16.10;96.70
27978;DHT22;15314;49.248;6.968;2022-11-24T11:13:30;16.00;94.70
27978;DHT22;15314;49.248;6.968;2022-11-24T11:14:33;16.00;93.40
27978;DHT22;15314;49.248;6.968;2022-11-24T11:15:35;15.50;93.40
27978;DHT22;15314;49.248;6.968;2022-11-24T11:16:38;16.50;92.80
27978;DHT22;15314;49.248;6.968;2022-11-24T11:17:39;17.70;92.30
27978;DHT22;15314;49.248;6.968;2022-11-24T11:18:45;19.60;90.00
27978;DHT22;15314;49.248;6.968;2022-11-24T11:19:49;21.50;86.40
27978;DHT22;15314;49.248;6.968;2022-11-24T11:20:56;21.50;80.90
27978;DHT22;15314;49.248;6.968;2022-11-24T11:22:18;22.50;76.70
27978;DHT22;15314;49.248;6.968;2022-11-24T11:23:26;21.40;76.30
27978;DHT22;15314;49.248;6.968;2022-11-24T11:24:28;19.60;77.10
27978;DHT22;15314;49.248;6.968;2022-11-24T11:25:34;18.50;79.00
27978;DHT22;15314;49.248;6.968;2022-11-24T11:26:37;17.60;81.50
27978;DHT22;15314;49.248;6.968;2022-11-24T11:27:39;16.90;83.10
27978;DHT22;15314;49.248;6.968;2022-11-24T11:28:40;16.50;84.90
27978;DHT22;15314;49.248;6.968;2022-11-24T11:29:41;16.10;86.30
27978;DHT22;15314;49.248;6.968;2022-11-24T11:30:58;15.60;87.10
27978;DHT22;15314;49.248;6.968;2022-11-24T11:32:02;15.10;88.60
27978;DHT22;15314;49.248;6.968;2022-11-24T11:33:07;14.90;90.00
27978;DHT22;15314;49.248;6.968;2022-11-24T11:34:18;14.70;90.50
27978;DHT22;15314;49.248;6.968;2022-11-24T11:35:19;14.40;90.90
27978;DHT22;15314;49.248;6.968;2022-11-24T11:36:20;14.50;91.10
27978;DHT22;15314;49.248;6.968;2022-11-24T11:37:23;14.60;91.00
27978;DHT22;15314;49.248;6.968;2022-11-24T11:38:25;14.90;91.20
27978;DHT22;15314;49.248;6.968;2022-11-24T11:39:37;15.00;91.10
27978;DHT22;15314;49.248;6.968;2022-11-24T11:40:39;14.70;91.00
27978;DHT22;15314;49.248;6.968;2022-11-24T11:41:44;14.50;90.80
27978;DHT22;15314;49.248;6.968;2022-11-24T11:42:51;14.20;91.20
27978;DHT22;15314;49.248;6.968;2022-11-24T11:45:42;14.00;91.80
27978;DHT22;15314;49.248;6.968;2022-11-24T11:46:44;13.90;92.20
27978;DHT22;15314;49.248;6.968;2022-11-24T11:48:22;13.70;92.50
27978;DHT22;15314;49.248;6.968;2022-11-24T11:49:15;13.50;92.50
27978;DHT22;15314;49.248;6.968;2022-11-24T11:52:59;13.10;93.30
27978;DHT22;15314;49.248;6.968;2022-11-24T11:54:22;13.40;93.50
27978;DHT22;15314;49.248;6.968;2022-11-24T11:55:44;14.10;92.40
27978;DHT22;15314;49.248;6.968;2022-11-24T11:56:53;13.80;92.60
27978;DHT22;15314;49.248;6.968;2022-11-24T11:58:40;13.40;93.00
27978;DHT22;15314;49.248;6.968;2022-11-24T11:59:46;13.20;93.10
27978;DHT22;15314;49.248;6.968;2022-11-24T12:01:00;13.10;93.50
27978;DHT22;15314;49.248;6.968;2022-11-24T12:04:51;13.70;93.70
27978;DHT22;15314;49.248;6.968;2022-11-24T12:06:09;13.50;93.70
27978;DHT22;15314;49.248;6.968;2022-11-24T12:13:23;12.70;94.20
27978;DHT22;15314;49.248;6.968;2022-11-24T12:14:23;12.60;94.30
27978;DHT22;15314;49.248;6.968;2022-11-24T12:18:21;17.90;90.90
27978;DHT22;15314;49.248;6.968;2022-11-24T12:23:17;16.30;91.00
27978;DHT22;15314;49.248;6.968;2022-11-24T12:26:13;14.90;90.60
27978;DHT22;15314;49.248;6.968;2022-11-24T12:27:46;14.50;91.10
27978;DHT22;15314;49.248;6.968;2022-11-24T12:30:10;14.10;92.30
27978;DHT22;15314;49.248;6.968;2022-11-24T12:34:50;16.30;90.50
27978;DHT22;15314;49.248;6.968;2022-11-24T12:35:59;16.60;89.10
27978;DHT22;15314;49.248;6.968;2022-11-24T12:39:00;15.80;87.20
27978;DHT22;15314;49.248;6.968;2022-11-24T12:41:23;14.30;89.60
27978;DHT22;15314;49.248;6.968;2022-11-24T12:43:38;13.50;90.90
27978;DHT22;15314;49.248;6.968;2022-11-24T12:48:02;16.10;90.90
27978;DHT22;15314;49.248;6.968;2022-11-24T12:50:57;15.90;88.90
27978;DHT22;15314;49.248;6.968;2022-11-24T12:52:08;15.30;89.00
27978;DHT22;15314;49.248;6.968;2022-11-24T12:53:16;15.00;90.10
27978;DHT22;15314;49.248;6.968;2022-11-24T12:54:20;14.70;89.60
27978;DHT22;15314;49.248;6.968;2022-11-24T12:55:22;14.90;90.20
27978;DHT22;15314;49.248;6.968;2022-11-24T12:56:37;15.10;89.30
27978;DHT22;15314;49.248;6.968;2022-11-24T12:57:46;14.90;89.40
27978;DHT22;15314;49.248;6.968;2022-11-24T12:59:32;14.90;90.20
27978;DHT22;15314;49.248;6.968;2022-11-24T13:00:55;14.70;90.30
27978;DHT22;15314;49.248;6.968;2022-11-24T13:02:33;14.60;90.50
27978;DHT22;15314;49.248;6.968;2022-11-24T13:04:04;14.10;90.60
27978;DHT22;15314;49.248;6.968;2022-11-24T13:06:32;13.70;91.40
27978;DHT22;15314;49.248;6.968;2022-11-24T13:08:44;13.10;90.90
27978;DHT22;15314;49.248;6.968;2022-11-24T13:12:23;12.90;92.20
27978;DHT22;15314;49.248;6.968;2022-11-24T13:13:57;12.70;92.30
27978;DHT22;15314;49.248;6.968;2022-11-24T13:14:59;12.60;92.20
27978;DHT22;15314;49.248;6.968;2022-11-24T13:16:05;12.70;92.40
27978;DHT22;15314;49.248;6.968;2022-11-24T13:17:31;12.60;92.50
27978;DHT22;15314;49.248;6.968;2022-11-24T13:18:54;12.60;93.00
27978;DHT22;15314;49.248;6.968;2022-11-24T13:21:45;12.60;92.90
27978;DHT22;15314;49.248;6.968;2022-11-24T13:22:52;12.70;93.10
27978;DHT22;15314;49.248;6.968;2022-11-24T13:24:42;12.80;92.90
27978;DHT22;15314;49.248;6.968;2022-11-24T13:25:29;12.90;92.30
27978;DHT22;15314;49.248;6.968;2022-11-24T13:26:52;12.90;92.50
27978;DHT22;15314;49.248;6.968;2022-11-24T13:27:58;13.00;92.40
27978;DHT22;15314;49.248;6.968;2022-11-24T13:29:01;13.00;92.60
27978;DHT22;15314;49.248;6.968;2022-11-24T13:31:33;13.10;92.40
27978;DHT22;15314;49.248;6.968;2022-11-24T13:33:35;13.80;92.20
27978;DHT22;15314;49.248;6.968;2022-11-24T13:37:01;14.40;90.60
27978;DHT22;15314;49.248;6.968;2022-11-24T13:38:03;14.60;90.00
27978;DHT22;15314;49.248;6.968;2022-11-24T13:39:23;14.60;89.50
27978;DHT22;15314;49.248;6.968;2022-11-24T13:40:44;14.10;89.60
27978;DHT22;15314;49.248;6.968;2022-11-24T13:48:00;12.60;91.70
27978;DHT22;15314;49.248;6.968;2022-11-24T13:49:01;12.50;92.20
27978;DHT22;15314;49.248;6.968;2022-11-24T13:51:21;12.40;92.30
27978;DHT22;15314;49.248;6.968;2022-11-24T13:52:41;12.40;92.30
27978;DHT22;15314;49.248;6.968;2022-11-24T13:53:48;12.10;92.30
27978;DHT22;15314;49.248;6.968;2022-11-24T13:54:49;12.20;92.40
27978;DHT22;15314;49.248;6.968;2022-11-24T13:56:38;12.10;92.30
27978;DHT22;15314;49.248;6.968;2022-11-24T13:57:34;12.00;92.60
27978;DHT22;15314;49.248;6.968;2022-11-24T13:58:40;12.00;92.70
27978;DHT22;15314;49.248;6.968;2022-11-24T13:59:41;12.00;92.40
27978;DHT22;15314;49.248;6.968;2022-11-24T14:02:20;12.70;92.20
27978;DHT22;15314;49.248;6.968;2022-11-24T14:03:30;12.90;91.80
27978;DHT22;15314;49.248;6.968;2022-11-24T14:04:33;13.20;91.60
27978;DHT22;15314;49.248;6.968;2022-11-24T14:05:47;13.30;91.40
27978;DHT22;15314;49.248;6.968;2022-11-24T14:07:52;13.30;91.00